sensor_id;sensor_type;location;lat;lon;timestamp;temperature;humidity
18511;DHT22;9384;48.044;11.616;2022-11-11T00:00:59;2.40;99.90
18511;DHT22;9384;48.044;11.616;2022-11-11T00:03:27;2.50;99.90
18511;DHT22;9384;48.044;11.616;2022-11-11T00:06:00;2.60;99.90
18511;DHT22;9384;48.044;11.616;2022-11-11T00:08:27;2.70;99.90
18511;DHT22;9384;48.044;11.616;2022-11-11T00:11:00;2.70;99.90
18511;DHT22;9384;48.044;11.616;2022-11-11T00:13:27;2.80;99.90
18511;DHT22;9384;48.044;11.616;2022-11-11T00:15:54;2.90;99.90
18511;DHT22;9384;48.044;11.616;2022-11-11T00:18:21;2.90;99.90
18511;DHT22;9384;48.044;11.616;2022-11-11T00:21:12;2.90;99.90
18511;DHT22;9384;48.044;11.616;2022-11-11T00:23:57;2.70;99.90
18511;DHT22;9384;48.044;11.616;2022-11-11T00:26:41;2.60;99.90
18511;DHT22;9384;48.044;11.616;2022-11-11T00:29:08;2.50;99.90
18511;DHT22;9384;48.044;11.616;2022-11-11T00:31:35;2.40;99.90
18511;DHT22;9384;48.044;11.616;2022-11-11T00:34:22;2.30;99.90
18511;DHT22;9384;48.044;11.616;2022-11-11T00:36:50;2.20;99.90
18511;DHT22;9384;48.044;11.616;2022-11-11T00:39:16;2.10;99.90
18511;DHT22;9384;48.044;11.616;2022-11-11T00:41:42;2.10;99.90
18511;DHT22;9384;48.044;11.616;2022-11-11T00:44:09;2.10;99.90
18511;DHT22;9384;48.044;11.616;2022-11-11T00:46:36;2.10;99.90
18511;DHT22;9384;48.044;11.616;2022-11-11T00:49:20;2.10;99.90
18511;DHT22;9384;48.044;11.616;2022-11-11T00:52:06;2.10;99.90
18511;DHT22;9384;48.044;11.616;2022-11-11T00:54:32;2.00;99.90
18511;DHT22;9384;48.044;11.616;2022-11-11T00:56:59;2.00;99.90
18511;DHT22;9384;48.044;11.616;2022-11-11T00:59:26;2.00;99.90
18511;DHT22;9384;48.044;11.616;2022-11-11T01:01:53;1.90;99.90
18511;DHT22;9384;48.044;11.616;2022-11-11T01:04:19;1.90;99.90
18511;DHT22;9384;48.044;11.616;2022-11-11T01:06:46;1.90;99.90
18511;DHT22;9384;48.044;11.616;2022-11-11T01:09:14;2.00;99.90
18511;DHT22;9384;48.044;11.616;2022-11-11T01:11:41;2.00;99.90
18511;DHT22;9384;48.044;11.616;2022-11-11T01:14:08;2.10;99.90
18511;DHT22;9384;48.044;11.616;2022-11-11T01:16:35;2.20;99.90
18511;DHT22;9384;48.044;11.616;2022-11-11T01:19:02;2.20;99.90
18511;DHT22;9384;48.044;11.616;2022-11-11T01:21:29;2.20;99.90
18511;DHT22;9384;48.044;11.616;2022-11-11T01:23:56;2.20;99.90
18511;DHT22;9384;48.044;11.616;2022-11-11T01:26:26;2.20;99.90
18511;DHT22;9384;48.044;11.616;2022-11-11T01:28:54;2.10;99.90
18511;DHT22;9384;48.044;11.616;2022-11-11T01:31:23;2.20;99.90
18511;DHT22;9384;48.044;11.616;2022-11-11T01:33:51;2.20;99.90
18511;DHT22;9384;48.044;11.616;2022-11-11T01:36:19;2.30;99.90
18511;DHT22;9384;48.044;11.616;2022-11-11T01:38:48;2.30;99.90
18511;DHT22;9384;48.044;11.616;2022-11-11T01:41:18;2.30;99.90
18511;DHT22;9384;48.044;11.616;2022-11-11T01:44:14;2.30;99.90
18511;DHT22;9384;48.044;11.616;2022-11-11T01:46:46;2.30;99.90
18511;DHT22;9384;48.044;11.616;2022-11-11T01:49:22;2.30;99.90
18511;DHT22;9384;48.044;11.616;2022-11-11T01:51:54;2.40;99.90
18511;DHT22;9384;48.044;11.616;2022-11-11T01:54:25;2.40;99.90
18511;DHT22;9384;48.044;11.616;2022-11-11T01:56:58;2.40;99.90
18511;DHT22;9384;48.044;11.616;2022-11-11T01:59:27;2.40;99.90
18511;DHT22;9384;48.044;11.616;2022-11-11T02:01:56;2.40;99.90
18511;DHT22;9384;48.044;11.616;2022-11-11T02:04:24;2.30;99.90
18511;DHT22;9384;48.044;11.616;2022-11-11T02:07:09;2.20;99.90
18511;DHT22;9384;48.044;11.616;2022-11-11T02:09:38;2.00;99.90
18511;DHT22;9384;48.044;11.616;2022-11-11T02:12:08;1.90;99.90
18511;DHT22;9384;48.044;11.616;2022-11-11T02:14:57;1.90;99.90
18511;DHT22;9384;48.044;11.616;2022-11-11T02:17:27;1.80;99.90
18511;DHT22;9384;48.044;11.616;2022-11-11T02:19:57;1.70;99.90
18511;DHT22;9384;48.044;11.616;2022-11-11T02:22:32;1.60;99.90
18511;DHT22;9384;48.044;11.616;2022-11-11T02:25:06;1.60;99.90
18511;DHT22;9384;48.044;11.616;2022-11-11T02:27:36;1.60;99.90
18511;DHT22;9384;48.044;11.616;2022-11-11T02:30:05;1.60;99.90
18511;DHT22;9384;48.044;11.616;2022-11-11T02:32:40;1.60;99.90
18511;DHT22;9384;48.044;11.616;2022-11-11T02:35:12;1.70;99.90
18511;DHT22;9384;48.044;11.616;2022-11-11T02:37:41;1.80;99.90
18511;DHT22;9384;48.044;11.616;2022-11-11T02:40:12;1.80;99.90
18511;DHT22;9384;48.044;11.616;2022-11-11T02:42:39;1.90;99.90
18511;DHT22;9384;48.044;11.616;2022-11-11T02:45:07;1.90;99.90
18511;DHT22;9384;48.044;11.616;2022-11-11T02:47:34;1.80;99.90
18511;DHT22;9384;48.044;11.616;2022-11-11T02:50:01;1.70;99.90
18511;DHT22;9384;48.044;11.616;2022-11-11T02:52:28;1.50;99.90
18511;DHT22;9384;48.044;11.616;2022-11-11T02:54:55;1.50;99.90
18511;DHT22;9384;48.044;11.616;2022-11-11T02:57:23;1.40;99.90
18511;DHT22;9384;48.044;11.616;2022-11-11T02:59:49;1.50;99.90
18511;DHT22;9384;48.044;11.616;2022-11-11T03:02:16;1.60;99.90
18511;DHT22;9384;48.044;11.616;2022-11-11T03:04:43;1.60;99.90
18511;DHT22;9384;48.044;11.616;2022-11-11T03:07:10;1.60;99.90
18511;DHT22;9384;48.044;11.616;2022-11-11T03:09:36;1.70;99.90
18511;DHT22;9384;48.044;11.616;2022-11-11T03:12:04;1.70;99.90
18511;DHT22;9384;48.044;11.616;2022-11-11T03:14:32;1.80;99.90
18511;DHT22;9384;48.044;11.616;2022-11-11T03:16:59;1.90;99.90
18511;DHT22;9384;48.044;11.616;2022-11-11T03:19:43;1.90;99.90
18511;DHT22;9384;48.044;11.616;2022-11-11T03:22:10;1.90;99.90
18511;DHT22;9384;48.044;11.616;2022-11-11T03:24:37;1.90;99.90
18511;DHT22;9384;48.044;11.616;2022-11-11T03:27:20;1.80;99.90
18511;DHT22;9384;48.044;11.616;2022-11-11T03:29:48;1.90;99.90
18511;DHT22;9384;48.044;11.616;2022-11-11T03:32:15;1.90;99.90
18511;DHT22;9384;48.044;11.616;2022-11-11T03:34:41;1.80;99.90
18511;DHT22;9384;48.044;11.616;2022-11-11T03:37:10;1.80;99.90
18511;DHT22;9384;48.044;11.616;2022-11-11T03:39:54;1.70;99.90
18511;DHT22;9384;48.044;11.616;2022-11-11T03:42:21;1.60;99.90
18511;DHT22;9384;48.044;11.616;2022-11-11T03:44:49;1.50;99.90
18511;DHT22;9384;48.044;11.616;2022-11-11T03:47:16;1.30;99.90
18511;DHT22;9384;48.044;11.616;2022-11-11T03:49:43;1.10;99.90
18511;DHT22;9384;48.044;11.616;2022-11-11T03:52:11;1.00;99.90
18511;DHT22;9384;48.044;11.616;2022-11-11T03:54:38;0.90;99.90
18511;DHT22;9384;48.044;11.616;2022-11-11T03:57:05;0.80;99.90
18511;DHT22;9384;48.044;11.616;2022-11-11T03:59:50;0.90;99.90
18511;DHT22;9384;48.044;11.616;2022-11-11T04:02:17;1.00;99.90
18511;DHT22;9384;48.044;11.616;2022-11-11T04:05:02;1.00;99.90
18511;DHT22;9384;48.044;11.616;2022-11-11T04:07:46;1.10;99.90
18511;DHT22;9384;48.044;11.616;2022-11-11T04:10:31;1.10;99.90
18511;DHT22;9384;48.044;11.616;2022-11-11T04:12:58;1.10;99.90
18511;DHT22;9384;48.044;11.616;2022-11-11T04:15:44;1.00;99.90
18511;DHT22;9384;48.044;11.616;2022-11-11T04:18:28;1.10;99.90
18511;DHT22;9384;48.044;11.616;2022-11-11T04:21:12;1.20;99.90
18511;DHT22;9384;48.044;11.616;2022-11-11T04:23:56;1.30;99.90
18511;DHT22;9384;48.044;11.616;2022-11-11T04:26:23;1.20;99.90
18511;DHT22;9384;48.044;11.616;2022-11-11T04:28:49;1.10;99.90
18511;DHT22;9384;48.044;11.616;2022-11-11T04:31:34;1.00;99.90
18511;DHT22;9384;48.044;11.616;2022-11-11T04:34:01;1.00;99.90
18511;DHT22;9384;48.044;11.616;2022-11-11T04:36:27;0.90;99.90
18511;DHT22;9384;48.044;11.616;2022-11-11T04:38:54;0.80;99.90
18511;DHT22;9384;48.044;11.616;2022-11-11T04:41:38;0.90;99.90
18511;DHT22;9384;48.044;11.616;2022-11-11T04:44:05;0.90;99.90
18511;DHT22;9384;48.044;11.616;2022-11-11T04:46:51;0.90;99.90
18511;DHT22;9384;48.044;11.616;2022-11-11T04:49:18;1.00;99.90
18511;DHT22;9384;48.044;11.616;2022-11-11T04:51:45;0.90;99.90
18511;DHT22;9384;48.044;11.616;2022-11-11T04:54:29;0.90;99.90
18511;DHT22;9384;48.044;11.616;2022-11-11T04:57:16;0.90;99.90
18511;DHT22;9384;48.044;11.616;2022-11-11T04:59:41;0.80;99.90
18511;DHT22;9384;48.044;11.616;2022-11-11T05:02:09;0.90;99.90
18511;DHT22;9384;48.044;11.616;2022-11-11T05:04:54;0.90;99.90
18511;DHT22;9384;48.044;11.616;2022-11-11T05:07:20;0.90;99.90
18511;DHT22;9384;48.044;11.616;2022-11-11T05:10:06;1.00;99.90
18511;DHT22;9384;48.044;11.616;2022-11-11T05:12:32;1.00;99.90
18511;DHT22;9384;48.044;11.616;2022-11-11T05:14:59;1.10;99.90
18511;DHT22;9384;48.044;11.616;2022-11-11T05:17:45;1.10;99.90
18511;DHT22;9384;48.044;11.616;2022-11-11T05:20:35;1.20;99.90
18511;DHT22;9384;48.044;11.616;2022-11-11T05:23:19;1.20;99.90
18511;DHT22;9384;48.044;11.616;2022-11-11T05:25:46;1.30;99.90
18511;DHT22;9384;48.044;11.616;2022-11-11T05:28:11;1.30;99.90
18511;DHT22;9384;48.044;11.616;2022-11-11T05:30:38;1.30;99.90
18511;DHT22;9384;48.044;11.616;2022-11-11T05:33:07;1.40;99.90
18511;DHT22;9384;48.044;11.616;2022-11-11T05:35:34;1.40;99.90
18511;DHT22;9384;48.044;11.616;2022-11-11T05:38:01;1.50;99.90
18511;DHT22;9384;48.044;11.616;2022-11-11T05:40:46;1.40;99.90
18511;DHT22;9384;48.044;11.616;2022-11-11T05:43:13;1.50;99.90
18511;DHT22;9384;48.044;11.616;2022-11-11T05:45:40;1.50;99.90
18511;DHT22;9384;48.044;11.616;2022-11-11T05:48:09;1.50;99.90
18511;DHT22;9384;48.044;11.616;2022-11-11T05:50:36;1.40;99.90
18511;DHT22;9384;48.044;11.616;2022-11-11T05:53:05;1.30;99.90
18511;DHT22;9384;48.044;11.616;2022-11-11T05:55:32;1.30;99.90
18511;DHT22;9384;48.044;11.616;2022-11-11T05:57:59;1.20;99.90
18511;DHT22;9384;48.044;11.616;2022-11-11T06:00:26;1.20;99.90
18511;DHT22;9384;48.044;11.616;2022-11-11T06:02:53;1.10;99.90
18511;DHT22;9384;48.044;11.616;2022-11-11T06:05:21;1.10;99.90
18511;DHT22;9384;48.044;11.616;2022-11-11T06:07:48;1.20;99.90
18511;DHT22;9384;48.044;11.616;2022-11-11T06:10:19;1.20;99.90
18511;DHT22;9384;48.044;11.616;2022-11-11T06:12:58;1.20;99.90
18511;DHT22;9384;48.044;11.616;2022-11-11T06:15:30;1.30;99.90
18511;DHT22;9384;48.044;11.616;2022-11-11T06:17:57;1.20;99.90
18511;DHT22;9384;48.044;11.616;2022-11-11T06:20:25;1.00;99.90
18511;DHT22;9384;48.044;11.616;2022-11-11T06:22:52;0.90;99.90
18511;DHT22;9384;48.044;11.616;2022-11-11T06:25:22;0.90;99.90
18511;DHT22;9384;48.044;11.616;2022-11-11T06:28:06;0.90;99.90
18511;DHT22;9384;48.044;11.616;2022-11-11T06:30:33;1.00;99.90
18511;DHT22;9384;48.044;11.616;2022-11-11T06:33:00;1.10;99.90
18511;DHT22;9384;48.044;11.616;2022-11-11T06:35:28;1.10;99.90
18511;DHT22;9384;48.044;11.616;2022-11-11T06:37:54;1.10;99.90
18511;DHT22;9384;48.044;11.616;2022-11-11T06:40:21;1.10;99.90
18511;DHT22;9384;48.044;11.616;2022-11-11T06:42:49;1.00;99.90
18511;DHT22;9384;48.044;11.616;2022-11-11T06:45:16;1.00;99.90
18511;DHT22;9384;48.044;11.616;2022-11-11T06:47:43;1.00;99.90
18511;DHT22;9384;48.044;11.616;2022-11-11T06:50:10;1.00;99.90
18511;DHT22;9384;48.044;11.616;2022-11-11T06:52:38;1.10;99.90
18511;DHT22;9384;48.044;11.616;2022-11-11T06:55:05;1.20;99.90
18511;DHT22;9384;48.044;11.616;2022-11-11T06:57:33;1.10;99.90
18511;DHT22;9384;48.044;11.616;2022-11-11T06:59:59;1.30;99.90
18511;DHT22;9384;48.044;11.616;2022-11-11T07:02:26;1.40;99.90
18511;DHT22;9384;48.044;11.616;2022-11-11T07:04:53;1.50;99.90
18511;DHT22;9384;48.044;11.616;2022-11-11T07:07:20;1.60;99.90
18511;DHT22;9384;48.044;11.616;2022-11-11T07:09:48;1.70;99.90
18511;DHT22;9384;48.044;11.616;2022-11-11T07:12:15;1.80;99.90
18511;DHT22;9384;48.044;11.616;2022-11-11T07:14:41;1.90;99.90
18511;DHT22;9384;48.044;11.616;2022-11-11T07:17:08;2.00;99.90
18511;DHT22;9384;48.044;11.616;2022-11-11T07:19:35;2.10;99.90
18511;DHT22;9384;48.044;11.616;2022-11-11T07:22:02;2.30;99.90
18511;DHT22;9384;48.044;11.616;2022-11-11T07:24:29;2.30;99.90
18511;DHT22;9384;48.044;11.616;2022-11-11T07:26:57;2.50;99.90
18511;DHT22;9384;48.044;11.616;2022-11-11T07:29:26;2.60;99.90
18511;DHT22;9384;48.044;11.616;2022-11-11T07:31:53;2.70;99.90
18511;DHT22;9384;48.044;11.616;2022-11-11T07:34:20;2.80;99.90
18511;DHT22;9384;48.044;11.616;2022-11-11T07:36:47;2.90;99.90
18511;DHT22;9384;48.044;11.616;2022-11-11T07:39:14;3.00;99.90
18511;DHT22;9384;48.044;11.616;2022-11-11T07:41:41;3.10;99.90
18511;DHT22;9384;48.044;11.616;2022-11-11T07:44:09;3.20;99.90
18511;DHT22;9384;48.044;11.616;2022-11-11T07:46:35;3.20;99.90
18511;DHT22;9384;48.044;11.616;2022-11-11T07:49:02;3.30;99.90
18511;DHT22;9384;48.044;11.616;2022-11-11T07:51:29;3.40;99.90
18511;DHT22;9384;48.044;11.616;2022-11-11T07:53:56;3.50;99.90
18511;DHT22;9384;48.044;11.616;2022-11-11T07:58:50;3.60;99.90
18511;DHT22;9384;48.044;11.616;2022-11-11T08:01:18;3.80;99.90
18511;DHT22;9384;48.044;11.616;2022-11-11T08:03:45;3.80;99.90
18511;DHT22;9384;48.044;11.616;2022-11-11T08:08:42;3.50;99.90
18511;DHT22;9384;48.044;11.616;2022-11-11T08:11:09;3.50;99.90
18511;DHT22;9384;48.044;11.616;2022-11-11T08:13:36;3.50;99.90
18511;DHT22;9384;48.044;11.616;2022-11-11T08:16:05;3.60;99.90
18511;DHT22;9384;48.044;11.616;2022-11-11T08:18:34;3.70;99.90
18511;DHT22;9384;48.044;11.616;2022-11-11T08:21:00;3.70;99.90
18511;DHT22;9384;48.044;11.616;2022-11-11T08:23:28;3.80;99.90
18511;DHT22;9384;48.044;11.616;2022-11-11T08:25:58;3.90;99.90
18511;DHT22;9384;48.044;11.616;2022-11-11T08:28:25;4.00;99.90
18511;DHT22;9384;48.044;11.616;2022-11-11T08:30:52;4.10;99.90
18511;DHT22;9384;48.044;11.616;2022-11-11T08:33:20;4.20;99.90
18511;DHT22;9384;48.044;11.616;2022-11-11T08:35:48;4.20;99.90
18511;DHT22;9384;48.044;11.616;2022-11-11T08:38:15;4.20;99.90
18511;DHT22;9384;48.044;11.616;2022-11-11T08:40:42;4.30;99.90
18511;DHT22;9384;48.044;11.616;2022-11-11T08:43:09;4.40;99.90
18511;DHT22;9384;48.044;11.616;2022-11-11T08:45:36;4.50;99.90
18511;DHT22;9384;48.044;11.616;2022-11-11T08:48:03;4.60;99.90
18511;DHT22;9384;48.044;11.616;2022-11-11T08:50:30;4.60;99.90
18511;DHT22;9384;48.044;11.616;2022-11-11T08:52:58;4.80;99.90
18511;DHT22;9384;48.044;11.616;2022-11-11T08:55:25;4.80;99.90
18511;DHT22;9384;48.044;11.616;2022-11-11T08:57:57;4.90;99.90
18511;DHT22;9384;48.044;11.616;2022-11-11T09:00:24;5.00;99.90
18511;DHT22;9384;48.044;11.616;2022-11-11T09:02:51;5.30;99.90
18511;DHT22;9384;48.044;11.616;2022-11-11T09:20:03;5.50;99.90
18511;DHT22;9384;48.044;11.616;2022-11-11T10:40:09;11.40;99.90
18511;DHT22;9384;48.044;11.616;2022-11-11T10:42:40;15.10;99.90
18511;DHT22;9384;48.044;11.616;2022-11-11T10:45:13;15.50;99.90
18511;DHT22;9384;48.044;11.616;2022-11-11T10:47:52;15.70;99.90
18511;DHT22;9384;48.044;11.616;2022-11-11T10:55:24;15.80;99.90
18511;DHT22;9384;48.044;11.616;2022-11-11T10:57:56;15.60;99.90
18511;DHT22;9384;48.044;11.616;2022-11-11T11:00:26;15.60;99.90
18511;DHT22;9384;48.044;11.616;2022-11-11T11:03:01;15.70;99.90
18511;DHT22;9384;48.044;11.616;2022-11-11T11:05:35;15.80;99.90
18511;DHT22;9384;48.044;11.616;2022-11-11T11:08:07;16.40;99.90
18511;DHT22;9384;48.044;11.616;2022-11-11T11:10:39;16.30;99.90
18511;DHT22;9384;48.044;11.616;2022-11-11T11:13:11;16.80;99.90
18511;DHT22;9384;48.044;11.616;2022-11-11T11:15:41;16.20;99.90
18511;DHT22;9384;48.044;11.616;2022-11-11T11:18:16;16.30;99.90
18511;DHT22;9384;48.044;11.616;2022-11-11T11:20:55;16.40;99.90
18511;DHT22;9384;48.044;11.616;2022-11-11T11:23:35;16.80;99.90
18511;DHT22;9384;48.044;11.616;2022-11-11T11:26:03;16.80;99.70
18511;DHT22;9384;48.044;11.616;2022-11-11T11:28:30;16.80;98.30
18511;DHT22;9384;48.044;11.616;2022-11-11T11:31:00;16.70;98.70
18511;DHT22;9384;48.044;11.616;2022-11-11T11:33:49;16.70;98.70
18511;DHT22;9384;48.044;11.616;2022-11-11T11:36:17;16.90;98.80
18511;DHT22;9384;48.044;11.616;2022-11-11T11:38:45;16.50;98.70
18511;DHT22;9384;48.044;11.616;2022-11-11T11:41:15;17.00;99.50
18511;DHT22;9384;48.044;11.616;2022-11-11T12:22:21;17.60;98.20
18511;DHT22;9384;48.044;11.616;2022-11-11T12:24:54;16.10;96.70
18511;DHT22;9384;48.044;11.616;2022-11-11T12:27:32;16.30;96.00
18511;DHT22;9384;48.044;11.616;2022-11-11T12:30:07;16.60;96.70
18511;DHT22;9384;48.044;11.616;2022-11-11T12:32:57;16.60;96.10
18511;DHT22;9384;48.044;11.616;2022-11-11T12:38:21;16.70;96.30
18511;DHT22;9384;48.044;11.616;2022-11-11T12:40:57;17.10;93.70
18511;DHT22;9384;48.044;11.616;2022-11-11T12:43:32;17.20;93.60
18511;DHT22;9384;48.044;11.616;2022-11-11T12:46:05;17.10;93.50
18511;DHT22;9384;48.044;11.616;2022-11-11T14:34:13;18.40;90.30
18511;DHT22;9384;48.044;11.616;2022-11-11T14:36:46;13.60;99.20
18511;DHT22;9384;48.044;11.616;2022-11-11T14:39:24;13.40;99.70
18511;DHT22;9384;48.044;11.616;2022-11-11T14:47:32;13.40;99.50
18511;DHT22;9384;48.044;11.616;2022-11-11T14:49:59;12.70;99.90
18511;DHT22;9384;48.044;11.616;2022-11-11T15:00:10;12.60;99.90
18511;DHT22;9384;48.044;11.616;2022-11-11T15:02:47;12.20;99.90
18511;DHT22;9384;48.044;11.616;2022-11-11T15:05:19;12.20;99.90
18511;DHT22;9384;48.044;11.616;2022-11-11T15:07:59;12.10;99.90
18511;DHT22;9384;48.044;11.616;2022-11-11T15:10:50;12.00;99.90
18511;DHT22;9384;48.044;11.616;2022-11-11T15:13:48;11.80;99.90
18511;DHT22;9384;48.044;11.616;2022-11-11T15:16:27;11.70;99.90
18511;DHT22;9384;48.044;11.616;2022-11-11T15:19:08;11.60;99.90
18511;DHT22;9384;48.044;11.616;2022-11-11T15:21:42;11.50;99.90
18511;DHT22;9384;48.044;11.616;2022-11-11T15:24:23;11.40;99.90
18511;DHT22;9384;48.044;11.616;2022-11-11T15:27:01;11.30;99.90
18511;DHT22;9384;48.044;11.616;2022-11-11T15:29:57;11.30;99.90
18511;DHT22;9384;48.044;11.616;2022-11-11T15:32:34;11.20;99.90
18511;DHT22;9384;48.044;11.616;2022-11-11T15:35:18;11.00;99.90
18511;DHT22;9384;48.044;11.616;2022-11-11T15:37:51;11.00;99.90
18511;DHT22;9384;48.044;11.616;2022-11-11T15:40:21;10.90;99.90
18511;DHT22;9384;48.044;11.616;2022-11-11T15:42:50;10.70;99.90
18511;DHT22;9384;48.044;11.616;2022-11-11T15:45:22;10.60;99.90
18511;DHT22;9384;48.044;11.616;2022-11-11T15:50:27;10.50;99.90
18511;DHT22;9384;48.044;11.616;2022-11-11T15:52:55;10.30;99.90
18511;DHT22;9384;48.044;11.616;2022-11-11T15:55:24;10.30;99.90
18511;DHT22;9384;48.044;11.616;2022-11-11T15:57:52;10.20;99.90
18511;DHT22;9384;48.044;11.616;2022-11-11T16:00:26;10.10;99.90
18511;DHT22;9384;48.044;11.616;2022-11-11T16:02:55;10.00;99.90
18511;DHT22;9384;48.044;11.616;2022-11-11T16:05:23;10.00;99.90
18511;DHT22;9384;48.044;11.616;2022-11-11T16:07:52;9.90;99.90
18511;DHT22;9384;48.044;11.616;2022-11-11T16:10:27;9.90;99.90
18511;DHT22;9384;48.044;11.616;2022-11-11T16:12:57;9.80;99.90
18511;DHT22;9384;48.044;11.616;2022-11-11T16:15:32;9.70;99.90
18511;DHT22;9384;48.044;11.616;2022-11-11T16:18:05;9.60;99.90
18511;DHT22;9384;48.044;11.616;2022-11-11T16:20:36;9.50;99.90
18511;DHT22;9384;48.044;11.616;2022-11-11T16:23:06;9.40;99.90
18511;DHT22;9384;48.044;11.616;2022-11-11T16:25:34;9.30;99.90
18511;DHT22;9384;48.044;11.616;2022-11-11T16:28:04;9.20;99.90
18511;DHT22;9384;48.044;11.616;2022-11-11T16:30:33;9.00;99.90
18511;DHT22;9384;48.044;11.616;2022-11-11T16:33:00;8.90;99.90
18511;DHT22;9384;48.044;11.616;2022-11-11T16:35:30;8.80;99.90
18511;DHT22;9384;48.044;11.616;2022-11-11T16:37:58;8.70;99.90
18511;DHT22;9384;48.044;11.616;2022-11-11T16:40:39;8.60;99.90
18511;DHT22;9384;48.044;11.616;2022-11-11T16:43:18;8.60;99.90
18511;DHT22;9384;48.044;11.616;2022-11-11T16:45:46;8.50;99.90
18511;DHT22;9384;48.044;11.616;2022-11-11T16:48:48;8.40;99.90
18511;DHT22;9384;48.044;11.616;2022-11-11T16:51:22;8.30;99.90
18511;DHT22;9384;48.044;11.616;2022-11-11T16:53:54;8.30;99.90
18511;DHT22;9384;48.044;11.616;2022-11-11T16:59:02;8.20;99.90
18511;DHT22;9384;48.044;11.616;2022-11-11T17:01:40;7.90;99.90
18511;DHT22;9384;48.044;11.616;2022-11-11T17:09:37;7.50;99.90
18511;DHT22;9384;48.044;11.616;2022-11-11T17:12:05;7.20;99.90
18511;DHT22;9384;48.044;11.616;2022-11-11T17:14:35;7.10;99.90
18511;DHT22;9384;48.044;11.616;2022-11-11T17:17:03;7.00;99.90
18511;DHT22;9384;48.044;11.616;2022-11-11T17:19:31;7.00;99.90
18511;DHT22;9384;48.044;11.616;2022-11-11T17:22:06;6.90;99.90
18511;DHT22;9384;48.044;11.616;2022-11-11T17:24:33;7.00;99.90
18511;DHT22;9384;48.044;11.616;2022-11-11T17:27:00;7.00;99.90
18511;DHT22;9384;48.044;11.616;2022-11-11T17:29:27;7.00;99.90
18511;DHT22;9384;48.044;11.616;2022-11-11T17:31:55;7.00;99.90
18511;DHT22;9384;48.044;11.616;2022-11-11T17:34:22;7.00;99.90
18511;DHT22;9384;48.044;11.616;2022-11-11T17:36:49;6.90;99.90
18511;DHT22;9384;48.044;11.616;2022-11-11T17:39:16;6.80;99.90
18511;DHT22;9384;48.044;11.616;2022-11-11T17:41:43;6.80;99.90
18511;DHT22;9384;48.044;11.616;2022-11-11T17:44:09;6.80;99.90
18511;DHT22;9384;48.044;11.616;2022-11-11T17:46:36;6.80;99.90
18511;DHT22;9384;48.044;11.616;2022-11-11T17:49:05;6.70;99.90
18511;DHT22;9384;48.044;11.616;2022-11-11T17:53:59;6.70;99.90
18511;DHT22;9384;48.044;11.616;2022-11-11T17:56:26;6.40;99.90
18511;DHT22;9384;48.044;11.616;2022-11-11T17:58:53;6.40;99.90
18511;DHT22;9384;48.044;11.616;2022-11-11T18:01:21;6.40;99.90
18511;DHT22;9384;48.044;11.616;2022-11-11T18:03:47;6.40;99.90
18511;DHT22;9384;48.044;11.616;2022-11-11T18:06:16;6.40;99.90
18511;DHT22;9384;48.044;11.616;2022-11-11T18:08:42;6.50;99.90
18511;DHT22;9384;48.044;11.616;2022-11-11T18:11:09;6.50;99.90
18511;DHT22;9384;48.044;11.616;2022-11-11T18:13:36;6.50;99.90
18511;DHT22;9384;48.044;11.616;2022-11-11T18:16:03;6.50;99.90
18511;DHT22;9384;48.044;11.616;2022-11-11T18:18:31;6.50;99.90
18511;DHT22;9384;48.044;11.616;2022-11-11T18:21:02;6.50;99.90
18511;DHT22;9384;48.044;11.616;2022-11-11T18:23:31;6.50;99.90
18511;DHT22;9384;48.044;11.616;2022-11-11T18:25:59;6.50;99.90
18511;DHT22;9384;48.044;11.616;2022-11-11T18:28:30;6.50;99.90
18511;DHT22;9384;48.044;11.616;2022-11-11T18:31:01;6.20;99.90
18511;DHT22;9384;48.044;11.616;2022-11-11T18:33:28;6.00;99.90
18511;DHT22;9384;48.044;11.616;2022-11-11T18:36:00;5.70;99.90
18511;DHT22;9384;48.044;11.616;2022-11-11T18:38:27;5.60;99.90
18511;DHT22;9384;48.044;11.616;2022-11-11T18:41:02;5.50;99.90
18511;DHT22;9384;48.044;11.616;2022-11-11T18:43:33;5.40;99.90
18511;DHT22;9384;48.044;11.616;2022-11-11T18:46:03;5.30;99.90
18511;DHT22;9384;48.044;11.616;2022-11-11T18:48:30;5.30;99.90
18511;DHT22;9384;48.044;11.616;2022-11-11T18:50:57;5.20;99.90
18511;DHT22;9384;48.044;11.616;2022-11-11T18:53:24;5.20;99.90
18511;DHT22;9384;48.044;11.616;2022-11-11T18:55:50;5.30;99.90
18511;DHT22;9384;48.044;11.616;2022-11-11T18:58:19;5.30;99.90
18511;DHT22;9384;48.044;11.616;2022-11-11T19:00:45;5.40;99.90
18511;DHT22;9384;48.044;11.616;2022-11-11T19:03:12;5.50;99.90
18511;DHT22;9384;48.044;11.616;2022-11-11T19:05:39;5.60;99.90
18511;DHT22;9384;48.044;11.616;2022-11-11T19:08:06;5.70;99.90
18511;DHT22;9384;48.044;11.616;2022-11-11T19:10:33;5.70;99.90
18511;DHT22;9384;48.044;11.616;2022-11-11T19:12:59;5.60;99.90
18511;DHT22;9384;48.044;11.616;2022-11-11T19:15:28;5.60;99.90
18511;DHT22;9384;48.044;11.616;2022-11-11T19:17:54;5.50;99.90
18511;DHT22;9384;48.044;11.616;2022-11-11T19:20:21;5.40;99.90
18511;DHT22;9384;48.044;11.616;2022-11-11T19:22:48;5.40;99.90
18511;DHT22;9384;48.044;11.616;2022-11-11T19:25:15;5.40;99.90
18511;DHT22;9384;48.044;11.616;2022-11-11T19:27:42;5.40;99.90
18511;DHT22;9384;48.044;11.616;2022-11-11T19:30:09;5.50;99.90
18511;DHT22;9384;48.044;11.616;2022-11-11T19:32:40;5.60;99.90
18511;DHT22;9384;48.044;11.616;2022-11-11T19:35:07;5.60;99.90
18511;DHT22;9384;48.044;11.616;2022-11-11T19:37:33;5.60;99.90
18511;DHT22;9384;48.044;11.616;2022-11-11T19:40:00;5.60;99.90
18511;DHT22;9384;48.044;11.616;2022-11-11T19:42:27;5.60;99.90
18511;DHT22;9384;48.044;11.616;2022-11-11T19:44:54;5.60;99.90
18511;DHT22;9384;48.044;11.616;2022-11-11T19:47:21;5.60;99.90
18511;DHT22;9384;48.044;11.616;2022-11-11T19:49:49;5.60;99.90
18511;DHT22;9384;48.044;11.616;2022-11-11T19:52:15;5.60;99.90
18511;DHT22;9384;48.044;11.616;2022-11-11T19:54:42;5.50;99.90
18511;DHT22;9384;48.044;11.616;2022-11-11T19:57:09;5.50;99.90
18511;DHT22;9384;48.044;11.616;2022-11-11T20:02:03;5.20;99.90
18511;DHT22;9384;48.044;11.616;2022-11-11T20:04:30;5.10;99.90
18511;DHT22;9384;48.044;11.616;2022-11-11T20:06:58;5.00;99.90
18511;DHT22;9384;48.044;11.616;2022-11-11T20:09:25;4.90;99.90
18511;DHT22;9384;48.044;11.616;2022-11-11T20:11:52;4.80;99.90
18511;DHT22;9384;48.044;11.616;2022-11-11T20:14:19;4.80;99.90
18511;DHT22;9384;48.044;11.616;2022-11-11T20:16:45;4.70;99.90
18511;DHT22;9384;48.044;11.616;2022-11-11T20:19:12;4.60;99.90
18511;DHT22;9384;48.044;11.616;2022-11-11T20:21:39;4.60;99.90
18511;DHT22;9384;48.044;11.616;2022-11-11T20:24:10;4.60;99.90
18511;DHT22;9384;48.044;11.616;2022-11-11T20:26:37;4.50;99.90
18511;DHT22;9384;48.044;11.616;2022-11-11T20:29:04;4.50;99.90
18511;DHT22;9384;48.044;11.616;2022-11-11T20:31:30;4.50;99.90
18511;DHT22;9384;48.044;11.616;2022-11-11T20:33:57;4.40;99.90
18511;DHT22;9384;48.044;11.616;2022-11-11T20:36:24;4.30;99.90
18511;DHT22;9384;48.044;11.616;2022-11-11T20:38:51;4.30;99.90
18511;DHT22;9384;48.044;11.616;2022-11-11T20:41:20;4.20;99.90